createdAt,value
2023-03-14T00:00:25.704Z,0.10
2023-03-14T00:01:13.630Z,0.17
2023-03-14T00:01:55.250Z,0.20
2023-03-14T00:02:37.092Z,0.20
2023-03-14T00:03:19.145Z,0.10
2023-03-14T00:04:00.744Z,0.20
2023-03-14T00:04:42.390Z,0.20
2023-03-14T00:05:24.017Z,0.28
2023-03-14T00:06:07.345Z,0.15
2023-03-14T00:06:50.548Z,0.17
2023-03-14T00:07:34.816Z,0.52
2023-03-14T00:08:16.654Z,0.10
2023-03-14T00:08:59.032Z,0.10
2023-03-14T00:09:40.714Z,0.20
2023-03-14T00:10:22.425Z,0.10
2023-03-14T00:11:08.317Z,0.20
2023-03-14T00:11:49.944Z,0.15
2023-03-14T00:12:32.536Z,0.20
2023-03-14T00:13:14.216Z,0.15
2023-03-14T00:13:56.264Z,0.10
2023-03-14T00:14:37.925Z,0.20
2023-03-14T00:15:19.599Z,0.10
2023-03-14T00:16:06.302Z,0.20
2023-03-14T00:16:48.397Z,0.20
2023-03-14T00:17:30.835Z,0.25
2023-03-14T00:18:12.458Z,0.13
2023-03-14T00:18:54.058Z,0.10
2023-03-14T00:19:35.688Z,0.20
2023-03-14T00:20:17.480Z,0.13
2023-03-14T00:21:00.440Z,0.25
2023-03-14T00:21:42.101Z,0.10
2023-03-14T00:22:23.813Z,0.20
2023-03-14T00:23:05.468Z,0.20
2023-03-14T00:23:47.107Z,0.17
2023-03-14T00:24:28.656Z,0.10
2023-03-14T00:25:11.733Z,0.10
2023-03-14T00:25:53.580Z,0.10
2023-03-14T00:26:35.576Z,0.10
2023-03-14T00:27:17.216Z,0.10
2023-03-14T00:27:59.553Z,0.20
2023-03-14T00:28:42.561Z,0.20
2023-03-14T00:29:24.616Z,0.20
2023-03-14T00:30:08.771Z,0.20
2023-03-14T00:30:50.428Z,0.10
2023-03-14T00:31:32.019Z,0.20
2023-03-14T00:32:13.809Z,0.10
2023-03-14T00:32:55.495Z,0.10
2023-03-14T00:33:38.206Z,0.20
2023-03-14T00:34:19.877Z,0.20
2023-03-14T00:35:01.812Z,0.10
2023-03-14T00:35:43.514Z,0.10
2023-03-14T00:36:25.248Z,0.20
2023-03-14T00:37:07.060Z,0.10
2023-03-14T00:37:48.654Z,0.10
2023-03-14T00:38:31.562Z,0.20
2023-03-14T00:39:13.165Z,0.10
2023-03-14T00:39:54.779Z,0.10
2023-03-14T00:40:40.408Z,0.10
2023-03-14T00:41:23.906Z,0.20
2023-03-14T00:42:05.663Z,0.20
2023-03-14T00:42:47.234Z,0.50
2023-03-14T00:43:28.851Z,1.77
2023-03-14T00:44:10.498Z,3.67
2023-03-14T00:44:52.112Z,2.80
2023-03-14T00:45:33.739Z,0.93
2023-03-14T00:46:15.982Z,0.30
2023-03-14T00:46:58.868Z,0.30
2023-03-14T00:47:40.662Z,7.43
2023-03-14T00:48:23.304Z,3.97
2023-03-14T00:49:04.996Z,10.75
2023-03-14T00:49:46.629Z,7.60
2023-03-14T00:50:28.297Z,2.58
2023-03-14T00:51:10.533Z,1.00
2023-03-14T00:51:52.602Z,0.30
2023-03-14T00:52:34.272Z,0.28
2023-03-14T00:53:16.634Z,0.20
2023-03-14T00:53:58.285Z,0.20
2023-03-14T00:54:39.902Z,0.30
2023-03-14T00:55:21.510Z,0.20
2023-03-14T00:56:05.104Z,0.20
2023-03-14T00:56:46.768Z,0.10
2023-03-14T00:57:28.419Z,0.30
2023-03-14T00:58:14.493Z,0.20
2023-03-14T00:58:57.167Z,0.20
2023-03-14T00:59:38.914Z,0.20
2023-03-14T01:00:20.655Z,0.10
2023-03-14T01:01:10.973Z,0.30
2023-03-14T01:01:52.762Z,0.20
2023-03-14T01:02:34.590Z,0.20
2023-03-14T01:03:17.068Z,0.40
2023-03-14T01:03:58.848Z,0.40
2023-03-14T01:04:40.534Z,0.30
2023-03-14T01:05:23.454Z,0.20
2023-03-14T01:06:15.746Z,0.25
2023-03-14T01:06:58.061Z,0.30
2023-03-14T01:07:39.637Z,0.25
2023-03-14T01:08:21.221Z,0.20
2023-03-14T01:09:03.791Z,0.40
2023-03-14T01:09:45.372Z,0.30
2023-03-14T01:10:27.155Z,0.30
2023-03-14T01:11:10.997Z,0.20
2023-03-14T01:11:52.652Z,0.20
2023-03-14T01:12:34.231Z,0.10
2023-03-14T01:13:17.595Z,0.20
2023-03-14T01:14:00.357Z,0.20
2023-03-14T01:14:43.904Z,0.20
2023-03-14T01:15:25.682Z,0.10
2023-03-14T01:16:09.705Z,0.20
2023-03-14T01:16:52.513Z,0.22
2023-03-14T01:17:35.593Z,0.20
2023-03-14T01:18:17.234Z,0.15
2023-03-14T01:18:58.865Z,0.20
2023-03-14T01:19:40.524Z,0.20
2023-03-14T01:20:22.263Z,0.13
2023-03-14T01:21:29.000Z,0.10
2023-03-14T01:22:10.758Z,0.30
2023-03-14T01:22:53.460Z,0.20
2023-03-14T01:23:35.027Z,0.20
2023-03-14T01:24:16.939Z,0.20
2023-03-14T01:24:58.653Z,0.22
2023-03-14T01:25:42.595Z,0.17
2023-03-14T01:26:26.673Z,0.20
2023-03-14T01:27:08.424Z,0.25
2023-03-14T01:27:50.223Z,0.20
2023-03-14T01:28:31.949Z,0.17
2023-03-14T01:29:13.595Z,0.20
2023-03-14T01:29:55.769Z,0.20
2023-03-14T01:30:37.742Z,0.20
2023-03-14T01:31:19.793Z,0.47
2023-03-14T01:32:01.525Z,0.40
2023-03-14T01:32:43.373Z,0.60
2023-03-14T01:33:25.043Z,0.77
2023-03-14T01:34:06.715Z,0.50
2023-03-14T01:34:48.653Z,0.60
2023-03-14T01:35:30.291Z,0.30
2023-03-14T01:36:13.481Z,0.40
2023-03-14T01:36:56.153Z,0.30
2023-03-14T01:37:38.004Z,0.30
2023-03-14T01:38:22.478Z,0.20
2023-03-14T01:39:06.949Z,0.20
2023-03-14T01:39:48.982Z,0.20
2023-03-14T01:40:30.803Z,0.30
2023-03-14T01:41:30.632Z,0.30
2023-03-14T01:42:14.402Z,0.20
2023-03-14T01:43:07.066Z,0.20
2023-03-14T01:43:49.754Z,0.17
2023-03-14T01:44:57.823Z,0.20
2023-03-14T01:46:01.132Z,0.30
2023-03-14T01:46:45.134Z,0.20
2023-03-14T01:47:28.063Z,0.10
2023-03-14T01:48:10.546Z,0.20
2023-03-14T01:49:00.707Z,0.20
2023-03-14T01:49:43.790Z,0.20
2023-03-14T01:50:26.739Z,0.20
2023-03-14T01:51:13.866Z,0.28
2023-03-14T01:51:58.320Z,0.20
2023-03-14T01:52:47.340Z,0.15
2023-03-14T01:53:30.111Z,0.20
2023-03-14T01:54:29.850Z,0.30
2023-03-14T01:55:16.894Z,0.20
2023-03-14T01:55:58.643Z,0.20
2023-03-14T01:56:43.845Z,0.10
2023-03-14T01:57:28.290Z,0.10
2023-03-14T01:58:10.448Z,0.20
2023-03-14T01:58:53.413Z,0.30
2023-03-14T01:59:37.765Z,0.10
2023-03-14T02:00:22.691Z,0.20
2023-03-14T02:01:05.421Z,0.20
2023-03-14T02:01:49.976Z,0.20
2023-03-14T02:02:32.347Z,0.20
2023-03-14T02:03:18.036Z,0.20
2023-03-14T02:04:04.384Z,0.20
2023-03-14T02:04:46.360Z,0.20
2023-03-14T02:05:35.868Z,0.20
2023-03-14T02:06:41.543Z,0.20
2023-03-14T02:07:38.539Z,0.10
2023-03-14T02:08:28.485Z,0.20
2023-03-14T02:09:15.227Z,0.20
2023-03-14T02:09:58.828Z,0.17
2023-03-14T02:10:49.516Z,0.30
2023-03-14T02:11:35.878Z,0.20
2023-03-14T02:12:22.762Z,0.20
2023-03-14T02:13:22.301Z,0.20
2023-03-14T02:14:28.428Z,0.15
2023-03-14T02:15:29.100Z,0.10
2023-03-14T02:16:33.609Z,0.15
2023-03-14T02:17:23.535Z,0.22
2023-03-14T02:18:20.544Z,0.20
2023-03-14T02:19:18.478Z,0.10
2023-03-14T02:20:31.365Z,0.25
2023-03-14T02:21:39.362Z,0.28
2023-03-14T02:22:22.035Z,0.30
2023-03-14T02:23:29.756Z,0.35
2023-03-14T02:24:23.877Z,14.65
2023-03-14T02:25:44.441Z,6.13
2023-03-14T02:26:37.730Z,10.90
2023-03-14T02:27:21.127Z,3.40
2023-03-14T02:28:03.126Z,15.43
2023-03-14T02:28:45.136Z,24.48
2023-03-14T02:29:27.014Z,27.88
2023-03-14T02:30:23.812Z,27.98
2023-03-14T02:31:05.855Z,19.83
2023-03-14T02:31:49.982Z,26.55
2023-03-14T02:32:35.466Z,7.22
2023-03-14T02:33:20.315Z,16.67
2023-03-14T02:34:03.536Z,16.80
2023-03-14T02:34:49.388Z,25.55
2023-03-14T02:35:54.209Z,22.52
2023-03-14T02:36:35.836Z,25.40
2023-03-14T02:37:20.162Z,14.10
2023-03-14T02:38:11.585Z,14.20
2023-03-14T02:39:15.043Z,10.05
2023-03-14T02:39:59.270Z,10.85
2023-03-14T02:40:41.384Z,14.70
2023-03-14T02:41:23.452Z,4.20
2023-03-14T02:42:14.668Z,3.00
2023-03-14T02:42:56.263Z,4.47
2023-03-14T02:43:38.555Z,1.00
2023-03-14T02:44:24.185Z,1.80
2023-03-14T02:45:05.788Z,1.80
2023-03-14T02:45:51.428Z,1.67
2023-03-14T02:46:35.821Z,0.40
2023-03-14T02:47:17.787Z,0.30
2023-03-14T02:48:06.073Z,0.10
2023-03-14T02:49:02.762Z,0.17
2023-03-14T02:49:46.866Z,0.30
2023-03-14T02:50:34.382Z,0.22
2023-03-14T02:51:17.284Z,0.30
2023-03-14T02:52:01.467Z,0.20
2023-03-14T02:52:43.165Z,0.20
2023-03-14T02:53:28.514Z,0.13
2023-03-14T02:54:12.813Z,0.20
2023-03-14T02:54:54.714Z,0.10
2023-03-14T02:55:36.403Z,0.32
2023-03-14T02:56:24.018Z,0.20
2023-03-14T02:57:05.664Z,0.10
2023-03-14T02:57:47.247Z,0.20
2023-03-14T02:58:29.723Z,0.20
2023-03-14T02:59:19.011Z,0.10
2023-03-14T03:00:06.187Z,0.10
2023-03-14T03:00:50.960Z,0.38
2023-03-14T03:01:34.462Z,0.20
2023-03-14T03:02:16.361Z,0.20
2023-03-14T03:02:58.053Z,0.22
2023-03-14T03:03:39.806Z,0.20
2023-03-14T03:04:21.454Z,0.20
2023-03-14T03:05:03.174Z,0.30
2023-03-14T03:05:49.593Z,0.20
2023-03-14T03:06:31.210Z,0.30
2023-03-14T03:07:12.768Z,0.10
2023-03-14T03:07:54.616Z,0.20
2023-03-14T03:08:36.422Z,0.20
2023-03-14T03:09:18.083Z,0.20
2023-03-14T03:09:59.848Z,0.20
2023-03-14T03:10:41.579Z,0.20
2023-03-14T03:11:23.176Z,0.10
2023-03-14T03:12:04.913Z,0.30
2023-03-14T03:12:47.159Z,0.15
2023-03-14T03:13:28.823Z,0.10
2023-03-14T03:14:12.220Z,0.20
2023-03-14T03:14:53.820Z,0.20
2023-03-14T03:15:35.567Z,0.20
2023-03-14T03:16:17.353Z,0.20
2023-03-14T03:16:59.003Z,0.20
2023-03-14T03:17:40.764Z,0.20
2023-03-14T03:18:22.483Z,0.10
2023-03-14T03:19:04.094Z,0.10
2023-03-14T03:19:45.723Z,0.17
2023-03-14T03:20:27.388Z,0.20
2023-03-14T03:21:10.504Z,0.20
2023-03-14T03:21:52.172Z,0.20
2023-03-14T03:22:33.743Z,0.20
2023-03-14T03:23:17.389Z,0.20
2023-03-14T03:23:59.011Z,0.17
2023-03-14T03:24:40.622Z,0.20
2023-03-14T03:25:22.418Z,0.20
2023-03-14T03:26:05.739Z,0.10
2023-03-14T03:26:47.493Z,0.10
2023-03-14T03:27:32.727Z,0.10
2023-03-14T03:28:14.342Z,0.30
2023-03-14T03:28:56.165Z,0.20
2023-03-14T03:29:38.949Z,0.10
2023-03-14T03:30:20.976Z,0.10
2023-03-14T03:31:11.247Z,0.10
2023-03-14T03:31:54.050Z,0.20
2023-03-14T03:32:35.909Z,0.30
2023-03-14T03:33:17.966Z,0.20
2023-03-14T03:34:00.377Z,0.20
2023-03-14T03:34:42.874Z,0.20
2023-03-14T03:35:24.517Z,0.20
2023-03-14T03:36:08.188Z,0.10
2023-03-14T03:36:52.084Z,0.20
2023-03-14T03:37:34.837Z,0.30
2023-03-14T03:38:17.613Z,0.10
2023-03-14T03:39:01.060Z,0.20
2023-03-14T03:39:43.037Z,0.38
2023-03-14T03:40:25.304Z,0.20
2023-03-14T03:41:07.965Z,0.15
2023-03-14T03:41:50.428Z,0.20
2023-03-14T03:42:33.314Z,0.28
2023-03-14T03:43:15.201Z,0.40
2023-03-14T03:43:59.379Z,0.20
2023-03-14T03:44:41.196Z,0.30
2023-03-14T03:45:24.796Z,0.20
2023-03-14T03:46:10.341Z,0.20
2023-03-14T03:46:52.088Z,0.10
2023-03-14T03:47:33.775Z,0.10
2023-03-14T03:48:15.418Z,0.20
2023-03-14T03:49:01.222Z,0.30
2023-03-14T03:49:44.225Z,0.17
2023-03-14T03:50:26.581Z,0.10
2023-03-14T03:51:08.486Z,0.10
2023-03-14T03:51:51.642Z,0.20
2023-03-14T03:52:33.291Z,0.20
2023-03-14T03:53:17.857Z,0.10
2023-03-14T03:54:05.325Z,0.20
2023-03-14T03:54:48.726Z,0.20
2023-03-14T03:55:30.343Z,0.20
2023-03-14T03:56:12.216Z,0.20
2023-03-14T03:56:55.736Z,0.30
2023-03-14T03:57:37.294Z,0.20
2023-03-14T03:58:19.008Z,0.28
2023-03-14T03:59:00.736Z,0.20
2023-03-14T03:59:42.497Z,0.20
2023-03-14T04:00:24.307Z,0.20
2023-03-14T04:01:07.820Z,0.13
2023-03-14T04:01:49.693Z,0.20
2023-03-14T04:02:31.608Z,0.20
2023-03-14T04:03:13.382Z,0.20
2023-03-14T04:03:55.175Z,0.20
2023-03-14T04:04:39.103Z,0.20
2023-03-14T04:05:20.870Z,0.13
2023-03-14T04:06:12.230Z,0.20
2023-03-14T04:06:54.985Z,0.10
2023-03-14T04:07:36.980Z,0.20
2023-03-14T04:08:19.215Z,0.25
2023-03-14T04:09:00.982Z,0.25
2023-03-14T04:09:56.584Z,0.30
2023-03-14T04:11:05.354Z,0.40
2023-03-14T04:12:14.321Z,0.20
2023-03-14T04:13:12.441Z,0.10
2023-03-14T04:13:55.615Z,0.45
2023-03-14T04:14:37.258Z,0.20
2023-03-14T04:15:32.717Z,0.30
2023-03-14T04:16:21.102Z,0.25
2023-03-14T04:17:03.157Z,0.15
2023-03-14T04:17:45.827Z,0.20
2023-03-14T04:18:31.270Z,0.25
2023-03-14T04:19:13.040Z,0.30
2023-03-14T04:19:54.949Z,0.20
2023-03-14T04:20:39.571Z,0.10
2023-03-14T04:21:21.501Z,0.22
2023-03-14T04:22:08.067Z,0.20
2023-03-14T04:22:58.543Z,0.30
2023-03-14T04:23:41.584Z,0.20
2023-03-14T04:24:23.255Z,0.20
2023-03-14T04:25:05.773Z,0.25
2023-03-14T04:25:52.721Z,0.10
2023-03-14T04:26:35.268Z,0.20
2023-03-14T04:27:16.944Z,0.20
2023-03-14T04:27:59.990Z,0.20
2023-03-14T04:28:44.584Z,0.20
2023-03-14T04:29:26.402Z,0.10
2023-03-14T04:30:08.922Z,0.10
2023-03-14T04:31:11.789Z,0.32
2023-03-14T04:31:53.810Z,0.22
2023-03-14T04:32:35.543Z,0.17
2023-03-14T04:33:18.315Z,0.38
2023-03-14T04:34:05.927Z,0.20
2023-03-14T04:34:52.338Z,0.28
2023-03-14T04:35:34.373Z,0.30
2023-03-14T04:36:21.815Z,0.20
2023-03-14T04:37:04.076Z,0.20
2023-03-14T04:37:52.824Z,0.40
2023-03-14T04:38:35.931Z,0.30
2023-03-14T04:39:18.022Z,0.43
2023-03-14T04:40:08.411Z,0.10
2023-03-14T04:40:50.193Z,0.28
2023-03-14T04:41:33.792Z,0.30
2023-03-14T04:42:15.597Z,0.17
2023-03-14T04:42:57.982Z,0.30
2023-03-14T04:43:39.949Z,0.38
2023-03-14T04:44:23.686Z,0.20
2023-03-14T04:45:08.598Z,0.17
2023-03-14T04:45:50.825Z,0.28
2023-03-14T04:46:33.329Z,0.20
2023-03-14T04:47:16.035Z,0.28
2023-03-14T04:47:59.195Z,0.10
2023-03-14T04:48:40.933Z,0.20
2023-03-14T04:49:23.604Z,0.10
2023-03-14T04:50:06.117Z,0.30
2023-03-14T04:50:48.325Z,0.30
2023-03-14T04:51:30.267Z,0.20
2023-03-14T04:52:12.069Z,0.25
2023-03-14T04:52:53.928Z,0.30
2023-03-14T04:53:36.656Z,0.70
2023-03-14T04:54:20.637Z,0.25
2023-03-14T04:55:06.363Z,0.10
2023-03-14T04:55:53.066Z,0.20
2023-03-14T04:56:35.643Z,0.10
2023-03-14T04:57:18.212Z,0.30
2023-03-14T04:58:00.597Z,0.20
2023-03-14T04:58:42.379Z,0.20
2023-03-14T04:59:24.194Z,0.17
2023-03-14T05:00:09.357Z,0.20
2023-03-14T05:01:09.517Z,0.15
2023-03-14T05:02:10.994Z,0.20
2023-03-14T05:03:13.440Z,0.20
2023-03-14T05:04:11.468Z,0.20
2023-03-14T05:05:20.432Z,0.40
2023-03-14T05:06:28.018Z,0.30
2023-03-14T05:07:38.947Z,0.40
2023-03-14T05:08:38.814Z,0.35
2023-03-14T05:09:43.405Z,0.28
2023-03-14T05:10:57.049Z,0.30
2023-03-14T05:12:07.697Z,0.30
2023-03-14T05:13:07.201Z,0.20
2023-03-14T05:14:19.320Z,0.20
2023-03-14T05:15:24.269Z,0.40
2023-03-14T05:16:25.456Z,0.20
2023-03-14T05:17:07.084Z,0.20
2023-03-14T05:17:51.638Z,0.20
2023-03-14T05:19:04.156Z,0.52
2023-03-14T05:19:55.850Z,0.20
2023-03-14T05:20:46.592Z,0.20
2023-03-14T05:21:37.760Z,0.10
2023-03-14T05:22:48.608Z,0.30
2023-03-14T05:23:40.366Z,0.20
2023-03-14T05:24:45.131Z,0.20
2023-03-14T05:25:45.378Z,0.30
2023-03-14T05:26:45.520Z,0.20
2023-03-14T05:27:55.904Z,0.30
2023-03-14T05:28:47.027Z,0.30
2023-03-14T05:29:43.874Z,0.32
2023-03-14T05:30:51.339Z,0.20
2023-03-14T05:31:51.521Z,0.30
2023-03-14T05:32:44.639Z,0.35
2023-03-14T05:33:29.083Z,0.28
2023-03-14T05:34:29.320Z,0.13
2023-03-14T05:35:35.776Z,0.20
2023-03-14T05:36:27.933Z,0.10
2023-03-14T05:37:29.796Z,0.38
2023-03-14T05:38:31.391Z,0.20
2023-03-14T05:39:23.800Z,0.20
2023-03-14T05:40:28.167Z,0.30
2023-03-14T05:41:19.538Z,0.30
2023-03-14T05:42:32.074Z,0.20
2023-03-14T05:43:33.369Z,0.30
2023-03-14T05:44:47.633Z,0.30
2023-03-14T05:45:40.424Z,0.10
2023-03-14T05:46:36.262Z,0.20
2023-03-14T05:47:38.166Z,0.20
2023-03-14T05:48:42.640Z,0.30
2023-03-14T05:49:31.339Z,0.20
2023-03-14T05:50:45.803Z,0.20
2023-03-14T05:51:56.484Z,0.20
2023-03-14T05:53:10.225Z,0.22
2023-03-14T05:54:30.234Z,1.63
2023-03-14T05:55:22.164Z,0.60
2023-03-14T05:56:22.757Z,0.30
2023-03-14T05:57:30.905Z,0.10
2023-03-14T05:58:27.654Z,0.10
2023-03-14T05:59:27.918Z,0.20
2023-03-14T06:00:35.557Z,0.30
2023-03-14T06:01:33.845Z,0.20
2023-03-14T06:02:28.318Z,0.13
2023-03-14T06:03:18.367Z,0.20
2023-03-14T06:04:02.943Z,0.15
2023-03-14T06:04:44.971Z,0.10
2023-03-14T06:05:26.680Z,0.60
2023-03-14T06:06:13.449Z,0.10
2023-03-14T06:06:55.180Z,0.15
2023-03-14T06:07:37.278Z,0.10
2023-03-14T06:08:20.541Z,0.10
2023-03-14T06:09:02.347Z,0.15
2023-03-14T06:09:46.721Z,0.20
2023-03-14T06:10:31.782Z,0.20
2023-03-14T06:11:13.610Z,0.10
2023-03-14T06:11:56.042Z,0.20
2023-03-14T06:12:37.857Z,0.10
2023-03-14T06:13:20.147Z,0.13
2023-03-14T06:14:02.300Z,0.10
2023-03-14T06:14:43.931Z,0.10
2023-03-14T06:15:26.264Z,0.13
2023-03-14T06:16:10.488Z,0.10
2023-03-14T06:16:53.592Z,0.10
2023-03-14T06:17:36.876Z,0.20
2023-03-14T06:18:23.340Z,0.10
2023-03-14T06:19:05.229Z,0.10
2023-03-14T06:19:48.087Z,0.28
2023-03-14T06:20:29.762Z,0.30
2023-03-14T06:21:14.223Z,0.10
2023-03-14T06:21:55.847Z,0.45
2023-03-14T06:22:40.418Z,0.10
2023-03-14T06:23:23.826Z,0.20
2023-03-14T06:24:05.789Z,0.10
2023-03-14T06:24:53.185Z,0.10
2023-03-14T06:25:36.480Z,0.10
2023-03-14T06:26:18.147Z,0.10
2023-03-14T06:26:59.870Z,0.13
2023-03-14T06:27:41.578Z,0.03
2023-03-14T06:28:25.807Z,0.10
2023-03-14T06:29:07.899Z,0.10
2023-03-14T06:29:50.165Z,0.20
2023-03-14T06:30:32.035Z,0.10
2023-03-14T06:31:13.870Z,0.20
2023-03-14T06:32:06.176Z,0.10
2023-03-14T06:32:48.098Z,0.10
2023-03-14T06:33:31.813Z,0.20
2023-03-14T06:34:14.752Z,0.15
2023-03-14T06:34:58.148Z,0.10
2023-03-14T06:35:39.906Z,0.10
2023-03-14T06:36:21.600Z,0.13
2023-03-14T06:37:03.785Z,0.35
2023-03-14T06:37:46.092Z,0.20
2023-03-14T06:38:28.325Z,0.17
2023-03-14T06:39:11.325Z,0.20
2023-03-14T06:39:57.445Z,0.22
2023-03-14T06:41:04.849Z,0.10
2023-03-14T06:41:51.820Z,0.10
2023-03-14T06:42:34.486Z,0.15
2023-03-14T06:43:16.177Z,0.20
2023-03-14T06:44:00.094Z,0.10
2023-03-14T06:44:42.404Z,0.20
2023-03-14T06:45:24.433Z,0.10
2023-03-14T06:46:07.430Z,0.20
2023-03-14T06:46:50.754Z,0.20
2023-03-14T06:47:32.710Z,0.10
2023-03-14T06:48:14.528Z,0.20
2023-03-14T06:49:03.647Z,0.13
2023-03-14T06:49:45.883Z,0.10
2023-03-14T06:50:28.617Z,0.10
2023-03-14T06:51:12.129Z,0.10
2023-03-14T06:51:53.841Z,0.10
2023-03-14T06:52:36.023Z,0.10
2023-03-14T06:53:18.020Z,0.05
2023-03-14T06:54:00.494Z,0.30
2023-03-14T06:54:43.474Z,0.10
2023-03-14T06:55:25.166Z,0.20
2023-03-14T06:56:07.473Z,0.13
2023-03-14T06:56:49.697Z,0.22
2023-03-14T06:57:31.672Z,0.10
2023-03-14T06:58:13.526Z,0.10
2023-03-14T06:58:58.336Z,0.20
2023-03-14T06:59:43.019Z,0.10
2023-03-14T07:00:25.874Z,0.13
2023-03-14T07:01:21.292Z,0.10
2023-03-14T07:02:03.620Z,0.10
2023-03-14T07:02:45.263Z,0.25
2023-03-14T07:03:37.805Z,0.10
2023-03-14T07:04:20.700Z,0.10
2023-03-14T07:05:05.188Z,0.10
2023-03-14T07:05:47.257Z,0.20
2023-03-14T07:06:30.350Z,0.20
2023-03-14T07:07:11.965Z,0.15
2023-03-14T07:07:53.813Z,0.15
2023-03-14T07:08:35.473Z,0.15
2023-03-14T07:09:20.137Z,0.20
2023-03-14T07:10:12.679Z,0.10
2023-03-14T07:10:57.509Z,0.10
2023-03-14T07:11:39.760Z,0.10
2023-03-14T07:12:21.810Z,0.28
2023-03-14T07:13:03.486Z,0.10
2023-03-14T07:13:49.417Z,0.20
2023-03-14T07:14:31.463Z,0.17
2023-03-14T07:15:18.613Z,0.20
2023-03-14T07:16:02.735Z,0.10
2023-03-14T07:16:44.574Z,0.10
2023-03-14T07:17:26.546Z,0.10
2023-03-14T07:18:08.203Z,0.17
2023-03-14T07:18:50.334Z,0.20
2023-03-14T07:19:32.129Z,0.10
2023-03-14T07:20:13.860Z,0.20
2023-03-14T07:20:55.839Z,0.10
2023-03-14T07:21:37.628Z,0.30
2023-03-14T07:22:23.354Z,0.10
2023-03-14T07:23:05.075Z,0.17
2023-03-14T07:23:52.906Z,0.15
2023-03-14T07:24:34.616Z,0.32
2023-03-14T07:25:16.524Z,0.13
2023-03-14T07:25:58.185Z,0.77
2023-03-14T07:26:41.745Z,0.20
2023-03-14T07:27:23.454Z,0.40
2023-03-14T07:28:05.124Z,0.20
2023-03-14T07:28:47.487Z,0.10
2023-03-14T07:29:32.672Z,0.10
2023-03-14T07:30:18.248Z,0.10
2023-03-14T07:31:00.581Z,0.10
2023-03-14T07:31:47.326Z,0.25
2023-03-14T07:32:33.036Z,0.20
2023-03-14T07:33:14.785Z,0.10
2023-03-14T07:33:56.859Z,0.10
2023-03-14T07:34:40.551Z,0.10
2023-03-14T07:35:23.104Z,0.10
2023-03-14T07:36:05.437Z,0.10
2023-03-14T07:36:47.123Z,0.10
2023-03-14T07:37:29.159Z,0.20
2023-03-14T07:38:11.291Z,0.10
2023-03-14T07:39:02.312Z,0.10
2023-03-14T07:40:08.223Z,0.20
2023-03-14T07:40:51.538Z,0.10
2023-03-14T07:41:34.002Z,0.13
2023-03-14T07:42:35.878Z,0.20
2023-03-14T07:43:31.743Z,0.10
2023-03-14T07:44:15.953Z,0.10
2023-03-14T07:44:57.570Z,0.20
2023-03-14T07:45:42.962Z,0.10
2023-03-14T07:46:25.002Z,0.10
2023-03-14T07:47:06.711Z,0.10
2023-03-14T07:47:48.388Z,0.10
2023-03-14T07:48:30.641Z,0.20
2023-03-14T07:49:12.211Z,0.10
2023-03-14T07:49:53.820Z,2.92
2023-03-14T07:50:35.436Z,0.30
2023-03-14T07:51:17.098Z,0.20
2023-03-14T07:52:00.020Z,0.10
2023-03-14T07:52:41.677Z,0.20
2023-03-14T07:53:24.588Z,0.20
2023-03-14T07:54:06.278Z,0.20
2023-03-14T07:54:47.912Z,0.20
2023-03-14T07:55:29.502Z,0.10
2023-03-14T07:56:11.056Z,0.10
2023-03-14T07:56:53.230Z,0.20
2023-03-14T07:57:35.147Z,0.10
2023-03-14T07:58:17.358Z,0.10
2023-03-14T07:58:59.120Z,0.10
2023-03-14T07:59:40.843Z,0.10
2023-03-14T08:00:22.583Z,0.10
2023-03-14T08:01:04.609Z,0.10
2023-03-14T08:01:46.293Z,0.10
2023-03-14T08:02:28.017Z,0.20
2023-03-14T08:03:09.748Z,0.10
2023-03-14T08:03:51.453Z,0.10
2023-03-14T08:04:34.051Z,0.20
2023-03-14T08:05:15.854Z,0.10
2023-03-14T08:05:57.653Z,0.10
2023-03-14T08:06:39.331Z,0.10
2023-03-14T08:07:20.988Z,0.10
2023-03-14T08:08:02.678Z,0.20
2023-03-14T08:08:44.452Z,0.10
2023-03-14T08:09:26.192Z,0.10
2023-03-14T08:10:08.838Z,0.20
2023-03-14T08:10:50.526Z,0.10
2023-03-14T08:11:32.197Z,0.10
2023-03-14T08:12:13.930Z,0.10
2023-03-14T08:12:57.490Z,0.10
2023-03-14T08:13:39.199Z,0.20
2023-03-14T08:14:20.985Z,0.10
2023-03-14T08:15:03.208Z,0.10
2023-03-14T08:15:50.158Z,0.20
2023-03-14T08:16:31.944Z,0.20
2023-03-14T08:17:13.637Z,0.10
2023-03-14T08:17:55.629Z,0.10
2023-03-14T08:18:37.289Z,0.10
2023-03-14T08:19:19.138Z,0.10
2023-03-14T08:20:01.156Z,0.10
2023-03-14T08:20:42.840Z,0.20
2023-03-14T08:21:24.399Z,0.10
2023-03-14T08:22:05.989Z,0.10
2023-03-14T08:22:48.197Z,0.15
2023-03-14T08:23:30.118Z,0.13
2023-03-14T08:24:11.901Z,0.15
2023-03-14T08:24:53.514Z,0.30
2023-03-14T08:25:35.316Z,0.10
2023-03-14T08:26:16.973Z,0.13
2023-03-14T08:26:58.645Z,0.20
2023-03-14T08:27:40.265Z,0.10
2023-03-14T08:28:21.904Z,0.10
2023-03-14T08:29:05.457Z,0.10
2023-03-14T08:29:47.183Z,0.10
2023-03-14T08:30:29.077Z,0.10
2023-03-14T08:31:10.961Z,0.10
2023-03-14T08:31:52.708Z,0.10
2023-03-14T08:32:34.517Z,0.10
2023-03-14T08:33:16.274Z,0.10
2023-03-14T08:34:00.670Z,0.10
2023-03-14T08:34:42.377Z,0.20
2023-03-14T08:35:24.776Z,0.10
2023-03-14T08:36:06.907Z,0.10
2023-03-14T08:36:48.808Z,0.20
2023-03-14T08:37:33.024Z,0.13
2023-03-14T08:38:14.733Z,0.10
2023-03-14T08:38:57.775Z,0.10
2023-03-14T08:39:39.469Z,0.10
2023-03-14T08:40:21.090Z,0.10
2023-03-14T08:41:04.753Z,0.10
2023-03-14T08:41:46.416Z,0.10
2023-03-14T08:42:28.052Z,0.10
2023-03-14T08:43:09.794Z,0.10
2023-03-14T08:43:51.587Z,0.10
2023-03-14T08:44:33.416Z,0.10
2023-03-14T08:45:17.546Z,0.10
2023-03-14T08:46:00.125Z,0.10
2023-03-14T08:46:41.872Z,0.20
2023-03-14T08:47:23.548Z,0.10
2023-03-14T08:48:05.658Z,0.10
2023-03-14T08:48:47.343Z,0.10
2023-03-14T08:49:29.099Z,0.10
2023-03-14T08:50:14.711Z,0.00
2023-03-14T08:51:04.868Z,0.10
2023-03-14T08:51:46.529Z,0.10
2023-03-14T08:52:28.225Z,0.10
2023-03-14T08:53:09.959Z,0.10
2023-03-14T08:53:51.775Z,0.00
2023-03-14T08:54:33.423Z,0.10
2023-03-14T08:55:15.264Z,0.05
2023-03-14T08:55:57.178Z,0.10
2023-03-14T08:56:39.127Z,0.10
2023-03-14T08:57:22.759Z,0.10
2023-03-14T08:58:04.532Z,0.00
2023-03-14T08:58:46.127Z,0.03
2023-03-14T08:59:27.745Z,0.00
2023-03-14T09:00:13.350Z,0.10
2023-03-14T09:00:55.074Z,0.00
2023-03-14T09:01:36.860Z,0.10
2023-03-14T09:02:18.506Z,0.10
2023-03-14T09:03:00.213Z,0.08
2023-03-14T09:03:41.896Z,0.00
2023-03-14T09:04:23.870Z,0.17
2023-03-14T09:05:06.589Z,0.10
2023-03-14T09:05:48.239Z,0.10
2023-03-14T09:06:30.036Z,0.00
2023-03-14T09:07:11.729Z,0.20
2023-03-14T09:07:53.332Z,0.10
2023-03-14T09:08:37.213Z,0.17
2023-03-14T09:09:19.745Z,0.10
2023-03-14T09:10:01.462Z,0.05
2023-03-14T09:10:43.137Z,0.00
2023-03-14T09:11:24.795Z,0.08
2023-03-14T09:12:06.526Z,0.00
2023-03-14T09:12:48.123Z,0.20
2023-03-14T09:13:29.780Z,0.08
2023-03-14T09:14:11.553Z,0.10
2023-03-14T09:14:53.242Z,0.13
2023-03-14T09:15:34.954Z,0.00
2023-03-14T09:16:16.784Z,0.00
2023-03-14T09:16:58.777Z,0.00
2023-03-14T09:17:40.501Z,0.10
2023-03-14T09:18:23.561Z,0.08
2023-03-14T09:19:05.207Z,0.10
2023-03-14T09:19:46.964Z,0.00
2023-03-14T09:20:28.748Z,0.10
2023-03-14T09:21:10.463Z,0.10
2023-03-14T09:21:52.118Z,0.00
2023-03-14T09:22:34.496Z,0.00
2023-03-14T09:23:16.655Z,0.10
2023-03-14T09:23:58.313Z,0.03
2023-03-14T09:24:41.546Z,0.00
2023-03-14T09:25:23.270Z,0.00
2023-03-14T09:26:05.256Z,0.10
2023-03-14T09:26:46.923Z,0.00
2023-03-14T09:27:28.628Z,0.00
2023-03-14T09:28:10.381Z,0.10
2023-03-14T09:28:52.023Z,0.10
2023-03-14T09:29:33.769Z,0.08
2023-03-14T09:30:15.538Z,0.10
2023-03-14T09:30:57.299Z,0.10
2023-03-14T09:31:39.227Z,0.08
2023-03-14T09:32:21.004Z,0.10
2023-03-14T09:33:02.732Z,0.00
2023-03-14T09:33:45.578Z,0.10
2023-03-14T09:34:28.019Z,0.20
2023-03-14T09:35:10.754Z,0.20
2023-03-14T09:35:52.512Z,0.10
2023-03-14T09:36:34.323Z,0.00
2023-03-14T09:37:17.246Z,0.00
2023-03-14T09:37:59.338Z,0.00
2023-03-14T09:38:41.129Z,0.00
2023-03-14T09:39:22.865Z,0.00
2023-03-14T09:40:11.150Z,0.10
2023-03-14T09:40:54.140Z,0.10
2023-03-14T09:41:41.926Z,0.10
2023-03-14T09:42:27.623Z,0.03
2023-03-14T09:43:15.328Z,0.05
2023-03-14T09:44:31.327Z,0.00
2023-03-14T09:45:21.571Z,0.10
2023-03-14T09:46:05.761Z,0.10
2023-03-14T09:46:51.525Z,0.10
2023-03-14T09:47:35.770Z,0.00
2023-03-14T09:48:21.495Z,0.10
2023-03-14T09:49:03.559Z,0.10
2023-03-14T09:49:45.169Z,0.00
2023-03-14T09:50:33.746Z,0.20
2023-03-14T09:51:18.715Z,0.00
2023-03-14T09:52:12.566Z,0.00
2023-03-14T09:53:03.215Z,0.10
2023-03-14T09:53:48.084Z,0.00
2023-03-14T09:54:37.082Z,0.10
2023-03-14T09:55:23.517Z,0.10
2023-03-14T09:56:09.712Z,0.00
2023-03-14T09:56:52.646Z,0.00
2023-03-14T09:57:36.544Z,0.50
2023-03-14T09:58:21.719Z,0.08
2023-03-14T09:59:09.327Z,0.28
2023-03-14T09:59:54.681Z,0.10
2023-03-14T10:00:36.662Z,0.05
2023-03-14T10:01:25.208Z,0.20
2023-03-14T10:02:40.567Z,0.13